createdAt,value
2023-05-23T00:01:33.795Z,50.40
2023-05-23T00:07:02.837Z,54.37
2023-05-23T00:09:32.617Z,49.24
2023-05-23T00:12:00.962Z,50.69
2023-05-23T00:14:46.497Z,50.04
2023-05-23T00:17:33.430Z,55.51
2023-05-23T00:20:01.549Z,55.42
2023-05-23T00:22:29.916Z,50.46
2023-05-23T00:25:02.237Z,53.40
2023-05-23T00:31:12.420Z,53.36
2023-05-23T00:34:00.376Z,52.11
2023-05-23T00:36:28.490Z,52.67
2023-05-23T00:38:56.712Z,51.11
2023-05-23T00:41:33.271Z,50.72
2023-05-23T00:44:01.794Z,53.99
2023-05-23T00:46:31.027Z,50.96
2023-05-23T00:51:53.962Z,51.09
2023-05-23T00:55:05.688Z,50.87
2023-05-23T00:57:35.662Z,53.50
2023-05-23T01:00:04.723Z,50.29
2023-05-23T01:02:36.770Z,50.07
2023-05-23T01:05:05.300Z,50.45
2023-05-23T01:07:33.634Z,51.06
2023-05-23T01:10:01.870Z,51.59
2023-05-23T01:12:37.465Z,51.47
2023-05-23T01:15:10.674Z,52.13
2023-05-23T01:17:48.904Z,52.90
2023-05-23T01:20:21.020Z,55.18
2023-05-23T01:23:23.380Z,52.67
2023-05-23T01:26:14.799Z,57.38
2023-05-23T01:28:48.149Z,55.60
2023-05-23T01:31:18.303Z,53.22
2023-05-23T01:33:50.096Z,52.11
2023-05-23T01:36:19.500Z,52.38
2023-05-23T01:38:47.828Z,53.04
2023-05-23T01:41:16.405Z,52.72
2023-05-23T01:43:46.392Z,52.36
2023-05-23T01:46:15.613Z,52.94
2023-05-23T01:48:44.390Z,52.06
2023-05-23T01:51:13.330Z,52.79
2023-05-23T01:53:41.957Z,51.89
2023-05-23T01:56:10.487Z,51.85
2023-05-23T01:58:39.006Z,51.73
2023-05-23T02:01:08.683Z,52.51
2023-05-23T02:03:38.008Z,53.11
2023-05-23T02:06:13.070Z,52.58
2023-05-23T02:08:58.534Z,54.22
2023-05-23T02:11:26.949Z,53.97
2023-05-23T02:13:55.381Z,53.06
2023-05-23T02:17:07.768Z,53.84
2023-05-23T02:23:01.209Z,54.89
2023-05-23T02:25:48.133Z,56.52
2023-05-23T02:32:10.707Z,58.02
2023-05-23T02:35:37.490Z,56.30
2023-05-23T02:38:07.016Z,57.45
2023-05-23T02:40:35.341Z,54.96
2023-05-23T02:43:03.649Z,54.45
2023-05-23T02:45:32.004Z,54.37
2023-05-23T02:48:00.758Z,54.00
2023-05-23T02:50:43.760Z,53.47
2023-05-23T02:53:13.636Z,53.85
2023-05-23T02:55:43.104Z,53.92
2023-05-23T02:58:46.250Z,53.13
2023-05-23T03:04:41.651Z,54.42
2023-05-23T03:07:20.377Z,54.60
2023-05-23T03:09:54.317Z,53.84
2023-05-23T03:12:25.757Z,54.93
2023-05-23T03:14:54.994Z,55.30
2023-05-23T03:17:23.289Z,55.45
2023-05-23T03:23:17.090Z,54.86
2023-05-23T03:26:08.685Z,55.90
2023-05-23T03:28:52.985Z,57.55
2023-05-23T03:31:21.341Z,54.39
2023-05-23T03:33:50.111Z,54.28
2023-05-23T03:36:36.040Z,54.22
2023-05-23T03:39:12.483Z,55.79
2023-05-23T03:41:42.046Z,53.50
2023-05-23T03:47:07.343Z,53.91
2023-05-23T03:49:36.422Z,54.01
2023-05-23T03:52:04.849Z,55.64
2023-05-23T03:54:39.572Z,54.84
2023-05-23T03:57:10.172Z,57.45
2023-05-23T04:00:17.850Z,54.96
2023-05-23T04:02:47.397Z,57.46
2023-05-23T04:05:16.786Z,54.70
2023-05-23T04:07:46.880Z,54.39
2023-05-23T04:10:33.651Z,54.87
2023-05-23T04:13:17.387Z,55.38
2023-05-23T04:15:50.119Z,56.48
2023-05-23T04:18:18.946Z,58.96
2023-05-23T04:20:48.023Z,56.68
2023-05-23T04:23:16.120Z,57.00
2023-05-23T04:25:44.849Z,56.68
2023-05-23T04:28:17.872Z,58.16
2023-05-23T04:31:04.274Z,58.33
2023-05-23T04:33:34.453Z,57.40
2023-05-23T04:36:09.179Z,57.57
2023-05-23T04:38:38.573Z,58.41
2023-05-23T04:41:11.415Z,62.13
2023-05-23T04:43:42.761Z,59.76
2023-05-23T04:46:11.238Z,62.11
2023-05-23T04:48:39.612Z,61.37
2023-05-23T04:51:08.731Z,61.98
2023-05-23T04:53:39.390Z,58.62
2023-05-23T04:56:09.900Z,60.09
2023-05-23T04:58:52.639Z,62.59
2023-05-23T05:01:24.652Z,62.04
2023-05-23T05:03:53.309Z,60.77
2023-05-23T05:06:22.186Z,60.29
2023-05-23T05:08:50.617Z,61.12
2023-05-23T05:11:18.761Z,62.50
2023-05-23T05:14:01.698Z,60.78
2023-05-23T05:16:31.904Z,61.88
2023-05-23T05:19:01.820Z,59.87
2023-05-23T05:21:54.369Z,61.61
2023-05-23T05:24:22.868Z,62.54
2023-05-23T05:26:51.312Z,60.54
2023-05-23T05:29:44.340Z,61.84
2023-05-23T05:32:34.008Z,61.63
2023-05-23T05:35:07.879Z,61.40
2023-05-23T05:37:37.833Z,60.62
2023-05-23T05:40:08.524Z,59.99
2023-05-23T05:42:37.193Z,62.98
2023-05-23T05:45:06.699Z,59.22
2023-05-23T05:50:48.076Z,60.51
2023-05-23T05:53:16.421Z,61.03
2023-05-23T05:55:44.503Z,59.06
2023-05-23T05:58:17.909Z,59.10
2023-05-23T06:00:57.414Z,59.43
2023-05-23T06:04:03.461Z,63.18
2023-05-23T06:06:48.343Z,62.89
2023-05-23T06:09:17.147Z,62.26
2023-05-23T06:12:16.400Z,61.05
2023-05-23T06:14:51.748Z,60.17
2023-05-23T06:17:19.833Z,60.35
2023-05-23T06:23:08.858Z,58.62
2023-05-23T06:25:37.155Z,57.54
2023-05-23T06:31:00.632Z,57.41
2023-05-23T06:36:49.076Z,57.23
2023-05-23T06:39:18.686Z,56.92
2023-05-23T06:41:48.221Z,55.36
2023-05-23T06:50:38.624Z,54.73
2023-05-23T06:53:07.978Z,55.12
2023-05-23T06:55:37.365Z,55.00
2023-05-23T06:58:05.819Z,54.58
2023-05-23T07:00:34.528Z,54.42
2023-05-23T07:03:04.053Z,54.42
2023-05-23T07:05:34.566Z,54.44
2023-05-23T07:08:03.099Z,54.01
2023-05-23T07:10:48.508Z,54.24
2023-05-23T07:13:19.102Z,54.07
2023-05-23T07:15:47.184Z,54.31
2023-05-23T07:18:15.311Z,53.78
2023-05-23T07:21:23.352Z,53.50
2023-05-23T07:23:51.723Z,53.41
2023-05-23T07:26:21.087Z,53.06
2023-05-23T07:28:51.425Z,52.85
2023-05-23T07:31:20.215Z,53.21
2023-05-23T07:33:48.340Z,53.09
2023-05-23T07:36:47.622Z,53.17
2023-05-23T07:39:24.508Z,53.76
2023-05-23T07:41:53.136Z,53.42
2023-05-23T07:44:29.305Z,53.61
2023-05-23T07:50:05.646Z,53.56
2023-05-23T07:52:34.016Z,53.49
2023-05-23T07:55:03.303Z,53.31
2023-05-23T07:57:32.350Z,53.51
2023-05-23T08:00:53.909Z,53.13
2023-05-23T08:06:20.838Z,53.64
2023-05-23T08:09:35.810Z,52.87
2023-05-23T08:12:23.946Z,53.29
2023-05-23T08:14:52.798Z,52.34
2023-05-23T08:18:31.115Z,52.02
2023-05-23T08:21:03.126Z,52.25
2023-05-23T08:23:31.781Z,51.99
2023-05-23T08:26:02.178Z,51.85
2023-05-23T08:28:34.641Z,51.86
2023-05-23T08:31:17.976Z,51.32
2023-05-23T08:33:47.370Z,51.30
2023-05-23T08:36:17.359Z,51.23
2023-05-23T08:38:46.510Z,51.15
2023-05-23T08:41:22.778Z,50.83
2023-05-23T08:44:21.400Z,51.07
2023-05-23T08:46:54.539Z,50.73
2023-05-23T08:49:39.428Z,50.59
2023-05-23T08:52:13.071Z,51.15
2023-05-23T08:54:53.515Z,50.25
2023-05-23T08:57:22.294Z,50.25
2023-05-23T08:59:56.575Z,50.03
2023-05-23T09:02:25.755Z,49.36
2023-05-23T09:04:54.820Z,49.76
2023-05-23T09:07:24.641Z,49.50
2023-05-23T09:09:53.508Z,48.76
2023-05-23T09:12:27.155Z,48.89
2023-05-23T09:14:57.842Z,47.54
2023-05-23T09:17:26.902Z,47.89
2023-05-23T09:19:55.086Z,47.97
2023-05-23T09:22:27.536Z,48.18
2023-05-23T09:25:48.008Z,47.98
2023-05-23T09:28:22.511Z,47.34
2023-05-23T09:36:56.974Z,48.54
2023-05-23T09:39:26.791Z,49.03
2023-05-23T09:41:54.956Z,48.64
2023-05-23T09:44:24.718Z,48.97
2023-05-23T09:46:55.339Z,48.57
2023-05-23T09:49:23.707Z,48.94
2023-05-23T09:52:01.348Z,48.62
2023-05-23T09:54:31.152Z,47.98
2023-05-23T09:57:01.996Z,48.62
2023-05-23T09:59:33.327Z,49.14
2023-05-23T10:06:06.947Z,48.96
2023-05-23T10:15:29.516Z,49.16
2023-05-23T10:21:51.558Z,49.88
2023-05-23T10:24:34.027Z,49.17
2023-05-23T10:27:04.485Z,50.09
2023-05-23T10:29:35.414Z,50.56
2023-05-23T10:32:05.689Z,50.49
2023-05-23T10:34:38.718Z,50.63
2023-05-23T10:37:18.515Z,50.00
2023-05-23T10:40:02.377Z,50.79
2023-05-23T10:46:22.794Z,50.86
2023-05-23T10:49:11.433Z,49.97
2023-05-23T10:55:28.134Z,50.83
2023-05-23T10:58:20.477Z,50.79
2023-05-23T11:01:02.487Z,51.48
2023-05-23T11:03:57.550Z,52.25
2023-05-23T11:06:41.277Z,52.65
2023-05-23T11:09:12.587Z,54.26
2023-05-23T11:12:05.993Z,55.24
2023-05-23T11:14:55.379Z,56.11
2023-05-23T11:17:51.159Z,59.28
2023-05-23T11:20:23.549Z,59.82
2023-05-23T11:23:09.188Z,56.90
2023-05-23T11:25:42.917Z,59.85
2023-05-23T11:28:11.839Z,57.95
2023-05-23T11:30:42.157Z,57.26
2023-05-23T11:33:18.702Z,57.38
2023-05-23T11:35:49.624Z,57.18
2023-05-23T11:38:18.581Z,57.46
2023-05-23T11:40:48.868Z,58.41
2023-05-23T11:43:26.776Z,55.27
2023-05-23T11:46:16.199Z,57.53
2023-05-23T11:51:36.437Z,57.48
2023-05-23T11:54:20.945Z,58.22
2023-05-23T11:57:36.548Z,58.69
2023-05-23T12:00:08.179Z,59.51
2023-05-23T12:02:40.106Z,57.53
2023-05-23T12:05:15.625Z,60.39
2023-05-23T12:07:47.388Z,59.07
2023-05-23T12:10:24.361Z,61.30
2023-05-23T12:12:53.528Z,62.62
2023-05-23T12:15:27.314Z,60.70
2023-05-23T12:17:57.012Z,61.21
2023-05-23T12:20:27.079Z,58.56
2023-05-23T12:22:58.108Z,58.36
2023-05-23T12:25:29.083Z,59.08
2023-05-23T12:27:58.158Z,59.17
2023-05-23T12:30:26.387Z,58.48
2023-05-23T12:32:55.384Z,59.47
2023-05-23T12:35:27.057Z,57.86
2023-05-23T12:37:58.988Z,57.86
2023-05-23T12:40:27.603Z,58.00
2023-05-23T12:43:00.364Z,57.88
2023-05-23T12:45:33.769Z,57.33
2023-05-23T12:48:15.538Z,57.38
2023-05-23T12:50:44.014Z,56.52
2023-05-23T12:53:13.417Z,57.18
2023-05-23T12:55:41.614Z,57.15
2023-05-23T12:58:31.419Z,55.94
2023-05-23T13:00:59.796Z,56.40
2023-05-23T13:03:31.147Z,56.90
2023-05-23T13:06:26.319Z,57.22
2023-05-23T13:09:30.461Z,57.19
2023-05-23T13:12:00.893Z,57.13
2023-05-23T13:14:29.209Z,56.42
2023-05-23T13:16:57.651Z,55.62
2023-05-23T13:19:28.690Z,56.90
2023-05-23T13:21:57.260Z,57.66
2023-05-23T13:24:25.403Z,58.07
2023-05-23T13:26:54.188Z,57.26
2023-05-23T13:29:24.093Z,58.96
2023-05-23T13:31:53.279Z,58.03
2023-05-23T13:34:31.537Z,58.46
2023-05-23T13:36:59.836Z,59.15
2023-05-23T13:39:38.591Z,59.15
2023-05-23T13:42:09.579Z,58.60
2023-05-23T13:44:40.428Z,58.09
2023-05-23T13:47:13.380Z,59.49
2023-05-23T13:49:42.038Z,58.54
2023-05-23T13:52:10.784Z,60.08
2023-05-23T13:54:40.492Z,59.21
2023-05-23T13:57:09.147Z,59.24
2023-05-23T13:59:38.803Z,56.99
2023-05-23T14:02:08.271Z,57.11
2023-05-23T14:04:36.851Z,56.45
2023-05-23T14:07:07.821Z,57.00
2023-05-23T14:09:36.215Z,57.23
2023-05-23T14:12:05.447Z,56.74
2023-05-23T14:14:33.706Z,58.03
2023-05-23T14:17:03.388Z,56.82
2023-05-23T14:19:32.056Z,56.63
2023-05-23T14:22:00.309Z,57.20
2023-05-23T14:24:28.456Z,57.02
2023-05-23T14:26:57.607Z,56.43
2023-05-23T14:29:26.223Z,56.43
2023-05-23T14:31:54.650Z,56.73
2023-05-23T14:34:25.787Z,56.27
2023-05-23T14:36:54.037Z,58.62
2023-05-23T14:39:22.659Z,57.73
2023-05-23T14:41:50.988Z,58.27
2023-05-23T14:44:19.168Z,58.36
2023-05-23T14:46:49.120Z,58.07
2023-05-23T14:49:18.592Z,58.35
2023-05-23T14:51:51.654Z,56.56
2023-05-23T14:54:20.550Z,56.75
2023-05-23T14:56:53.260Z,56.71
2023-05-23T14:59:22.114Z,57.36
2023-05-23T15:01:50.559Z,58.29
2023-05-23T15:04:19.130Z,58.38
2023-05-23T15:06:50.776Z,58.24
2023-05-23T15:09:23.636Z,58.65
2023-05-23T15:11:56.275Z,57.67
2023-05-23T15:14:29.268Z,58.92
2023-05-23T15:16:57.715Z,59.18
2023-05-23T15:19:26.045Z,58.35
2023-05-23T15:21:55.479Z,59.18
2023-05-23T15:24:23.839Z,59.87
2023-05-23T15:26:51.937Z,60.19
2023-05-23T15:29:20.134Z,60.93
2023-05-23T15:31:48.457Z,61.47
2023-05-23T15:34:16.722Z,58.83
2023-05-23T15:36:44.771Z,59.38
2023-05-23T15:39:14.890Z,60.30
2023-05-23T15:41:43.091Z,58.87
2023-05-23T15:44:15.005Z,58.32
2023-05-23T15:46:43.585Z,60.32
2023-05-23T15:49:24.560Z,60.34
2023-05-23T15:51:55.607Z,59.58
2023-05-23T15:54:25.639Z,59.61
2023-05-23T15:56:53.819Z,59.93
2023-05-23T15:59:22.322Z,60.25
2023-05-23T16:01:50.551Z,60.45
2023-05-23T16:04:18.977Z,58.72
2023-05-23T16:06:47.216Z,59.08
2023-05-23T16:09:15.393Z,59.92
2023-05-23T16:11:52.953Z,59.17
2023-05-23T16:14:21.054Z,59.76
2023-05-23T16:16:49.457Z,57.88
2023-05-23T16:19:17.685Z,56.78
2023-05-23T16:21:45.864Z,58.30
2023-05-23T16:24:16.999Z,58.06
2023-05-23T16:26:46.508Z,57.13
2023-05-23T16:29:21.029Z,56.43
2023-05-23T16:31:49.303Z,57.62
2023-05-23T16:34:39.602Z,56.89
2023-05-23T16:37:07.986Z,57.53
2023-05-23T16:39:36.416Z,57.63
2023-05-23T16:42:06.280Z,56.26
2023-05-23T16:44:34.327Z,56.67
2023-05-23T16:47:02.959Z,55.99
2023-05-23T16:50:01.890Z,56.48
2023-05-23T16:52:31.825Z,56.71
2023-05-23T16:54:59.823Z,55.64
2023-05-23T16:57:29.239Z,55.08
2023-05-23T16:59:57.683Z,55.35
2023-05-23T17:02:26.274Z,55.73
2023-05-23T17:04:55.749Z,55.45
2023-05-23T17:07:24.166Z,54.45
2023-05-23T17:09:52.485Z,54.92
2023-05-23T17:12:20.762Z,54.41
2023-05-23T17:14:50.816Z,54.51
2023-05-23T17:17:19.009Z,54.74
2023-05-23T17:19:49.501Z,53.82
2023-05-23T17:22:17.946Z,54.00
2023-05-23T17:24:45.984Z,53.46
2023-05-23T17:27:14.276Z,52.85
2023-05-23T17:29:42.858Z,52.40
2023-05-23T17:32:12.407Z,52.60
2023-05-23T17:34:40.736Z,52.31
2023-05-23T17:37:09.274Z,52.65
2023-05-23T17:39:37.493Z,51.98
2023-05-23T17:42:07.188Z,52.02
2023-05-23T17:44:44.493Z,52.19
2023-05-23T17:47:16.770Z,52.21
2023-05-23T17:49:46.058Z,52.07
2023-05-23T17:52:18.674Z,51.57
2023-05-23T17:54:59.016Z,52.07
2023-05-23T17:57:28.003Z,51.94
2023-05-23T17:59:56.610Z,51.98
2023-05-23T18:02:26.559Z,51.97
2023-05-23T18:09:25.632Z,52.18
2023-05-23T18:12:50.345Z,51.63
2023-05-23T18:15:40.410Z,52.01
2023-05-23T18:18:48.651Z,51.54
2023-05-23T18:21:36.468Z,52.07
2023-05-23T18:24:23.965Z,51.92
2023-05-23T18:27:06.472Z,52.48
2023-05-23T18:29:34.857Z,52.24
2023-05-23T18:32:07.155Z,51.47
2023-05-23T18:38:04.603Z,50.78
2023-05-23T18:40:33.721Z,50.65
2023-05-23T18:43:01.759Z,50.59
2023-05-23T18:45:30.048Z,50.67
2023-05-23T18:48:24.283Z,50.51
2023-05-23T18:50:52.334Z,50.02
2023-05-23T18:53:31.262Z,50.20
2023-05-23T18:56:16.263Z,49.80
2023-05-23T18:58:47.744Z,49.42
2023-05-23T19:01:15.888Z,49.54
2023-05-23T19:03:45.680Z,49.87
2023-05-23T19:06:19.864Z,49.80
2023-05-23T19:09:27.566Z,49.56
2023-05-23T19:12:14.955Z,49.91
2023-05-23T19:14:43.686Z,50.04
2023-05-23T19:17:12.370Z,50.35
2023-05-23T19:19:45.256Z,50.09
2023-05-23T19:22:13.650Z,50.06
2023-05-23T19:24:42.285Z,50.08
2023-05-23T19:27:17.288Z,50.04
2023-05-23T19:29:47.965Z,50.25
2023-05-23T19:32:18.903Z,50.55
2023-05-23T19:35:08.732Z,49.89
2023-05-23T19:37:39.943Z,50.13
2023-05-23T19:40:09.832Z,50.06
2023-05-23T19:42:56.162Z,50.28
2023-05-23T19:45:24.762Z,49.79
2023-05-23T19:48:09.699Z,50.01
2023-05-23T19:50:57.650Z,50.01
2023-05-23T19:56:58.127Z,49.98
2023-05-23T19:59:27.514Z,49.97
2023-05-23T20:01:55.857Z,50.17
2023-05-23T20:04:26.184Z,49.81
2023-05-23T20:06:54.491Z,49.90
2023-05-23T20:09:23.131Z,50.00
2023-05-23T20:11:51.625Z,50.92
2023-05-23T20:14:19.783Z,50.91
2023-05-23T20:16:49.301Z,51.13
2023-05-23T20:19:23.540Z,50.29
2023-05-23T20:22:14.728Z,50.41
2023-05-23T20:24:43.202Z,50.41
2023-05-23T20:27:12.154Z,50.61
2023-05-23T20:29:40.736Z,51.02
2023-05-23T20:32:10.535Z,50.87
2023-05-23T20:34:38.571Z,50.88
2023-05-23T20:37:06.649Z,50.59
2023-05-23T20:42:31.051Z,51.15
2023-05-23T20:45:04.967Z,51.43
2023-05-23T20:48:07.280Z,50.58
2023-05-23T20:50:36.605Z,51.05
2023-05-23T20:53:24.190Z,50.38
2023-05-23T20:55:52.863Z,50.77
2023-05-23T20:58:21.467Z,50.51
2023-05-23T21:00:50.832Z,51.09
2023-05-23T21:03:20.989Z,50.67
2023-05-23T21:06:19.032Z,50.67
2023-05-23T21:08:47.390Z,50.95
2023-05-23T21:11:16.261Z,50.35
2023-05-23T21:14:01.485Z,50.47
2023-05-23T21:16:31.304Z,50.52
2023-05-23T21:19:02.676Z,50.22
2023-05-23T21:21:31.153Z,50.12
2023-05-23T21:23:59.193Z,50.80
2023-05-23T21:30:30.650Z,50.88
2023-05-23T21:32:58.993Z,51.09
2023-05-23T21:39:43.331Z,50.77
2023-05-23T21:42:23.560Z,50.24
2023-05-23T21:45:15.199Z,50.51
2023-05-23T21:47:43.727Z,50.55
2023-05-23T21:50:27.579Z,51.00
2023-05-23T21:53:15.439Z,50.86
2023-05-23T22:02:04.551Z,50.61
2023-05-23T22:04:32.923Z,50.41
2023-05-23T22:07:01.157Z,50.57
2023-05-23T22:13:17.478Z,50.89
2023-05-23T22:18:52.557Z,51.16
2023-05-23T22:21:41.822Z,51.34
2023-05-23T22:24:29.582Z,51.26
2023-05-23T22:26:58.337Z,51.26
2023-05-23T22:29:26.404Z,50.77
2023-05-23T22:32:09.519Z,51.14
2023-05-23T22:34:39.532Z,50.67
2023-05-23T22:37:24.561Z,50.62
2023-05-23T22:39:52.959Z,50.77
2023-05-23T22:48:36.102Z,50.36
2023-05-23T22:51:07.351Z,50.59
2023-05-23T22:57:01.367Z,50.71
2023-05-23T23:03:19.511Z,51.06
2023-05-23T23:09:21.712Z,51.04
2023-05-23T23:11:50.068Z,52.34
2023-05-23T23:14:18.168Z,51.82
2023-05-23T23:16:49.814Z,51.25
2023-05-23T23:22:16.679Z,52.23
2023-05-23T23:27:53.665Z,51.59
2023-05-23T23:30:22.286Z,52.20
2023-05-23T23:32:50.286Z,51.24
2023-05-23T23:38:22.826Z,52.00
2023-05-23T23:40:51.002Z,51.47
2023-05-23T23:47:07.394Z,51.41
2023-05-23T23:49:37.153Z,51.78
2023-05-23T23:59:12.841Z,50.75
